Time;durP1;ratioP1;P1;durP2;ratioP2;P2;SDS_P1;SDS_P2;PMS_P1;PMS_P2;Temp;Humidity;BMP_temperature;BMP_pressure;BME280_temperature;BME280_humidity;BME280_pressure;Samples;Min_cycle;Max_cycle;Signal;HPM_P1;HPM_P2
2021/08/07 00:02:09;;;;;;;6.70;6.10;;;15.40;99.90;;;;;;5041859;28;20199;-43
2021/08/07 00:04:36;;;;;;;6.57;6.00;;;15.40;99.90;;;;;;5043781;28;20191;-43
2021/08/07 00:07:02;;;;;;;6.00;5.43;;;15.40;99.90;;;;;;5040247;28;20237;-45
2021/08/07 00:09:30;;;;;;;5.90;5.27;;;15.40;99.90;;;;;;5026305;28;20865;-44
2021/08/07 00:11:57;;;;;;;6.00;5.27;;;15.30;99.90;;;;;;5042554;28;20196;-43
2021/08/07 00:14:23;;;;;;;6.23;5.73;;;15.30;99.90;;;;;;5044176;28;20179;-44
2021/08/07 00:16:50;;;;;;;6.43;5.87;;;15.30;99.90;;;;;;5042608;28;20195;-46
2021/08/07 00:19:17;;;;;;;6.30;5.80;;;15.30;99.90;;;;;;5041091;28;20194;-48
2021/08/07 00:21:43;;;;;;;7.80;7.10;;;15.30;99.90;;;;;;5043618;28;20265;-44
2021/08/07 00:24:10;;;;;;;6.63;6.13;;;15.30;99.90;;;;;;5023060;28;20207;-44
2021/08/07 00:26:38;;;;;;;6.03;5.53;;;15.30;99.90;;;;;;5039339;28;20199;-44
2021/08/07 00:29:05;;;;;;;6.97;6.13;;;15.30;99.90;;;;;;5039157;28;20657;-47
2021/08/07 00:31:32;;;;;;;5.80;5.30;;;15.30;99.90;;;;;;5041668;28;20583;-42
2021/08/07 00:33:58;;;;;;;6.53;5.70;;;15.30;99.90;;;;;;5041075;28;20203;-44
2021/08/07 00:36:27;;;;;;;6.33;5.80;;;15.30;99.90;;;;;;5040449;28;20183;-44
2021/08/07 00:38:55;;;;;;;6.40;5.73;;;15.30;99.90;;;;;;5041914;28;20211;-42
2021/08/07 00:41:23;;;;;;;6.57;5.87;;;15.30;99.90;;;;;;5027889;28;20210;-43
2021/08/07 00:43:51;;;;;;;6.57;6.07;;;15.20;99.90;;;;;;5044552;28;20196;-41
2021/08/07 00:46:25;;;;;;;6.43;5.83;;;15.10;99.90;;;;;;5043759;28;20274;-44
2021/08/07 00:48:54;;;;;;;6.93;6.20;;;15.10;99.90;;;;;;5041195;28;20611;-43
2021/08/07 00:51:23;;;;;;;7.00;6.13;;;15.10;99.90;;;;;;5039357;28;20274;-43
2021/08/07 00:53:53;;;;;;;6.40;5.80;;;15.10;99.90;;;;;;5041661;28;20636;-44
2021/08/07 00:56:24;;;;;;;6.13;5.53;;;15.00;99.90;;;;;;5024291;28;20210;-43
2021/08/07 00:59:01;;;;;;;6.73;6.10;;;14.90;99.90;;;;;;5038424;28;20215;-44
2021/08/07 01:01:37;;;;;;;6.17;5.67;;;14.90;99.90;;;;;;5040390;28;20216;-42
2021/08/07 01:04:12;;;;;;;6.23;5.60;;;14.90;99.90;;;;;;5038211;28;20879;-49
2021/08/07 01:06:47;;;;;;;6.40;5.60;;;14.90;99.90;;;;;;5041561;28;20852;-46
2021/08/07 01:09:21;;;;;;;5.77;5.30;;;14.80;99.90;;;;;;5038347;28;20362;-43
2021/08/07 01:11:54;;;;;;;6.07;5.63;;;14.80;99.90;;;;;;5029412;28;20211;-44
2021/08/07 01:14:31;;;;;;;6.60;5.27;;;14.90;99.90;;;;;;5042585;28;20194;-41
2021/08/07 01:17:00;;;;;;;5.77;5.20;;;14.90;99.90;;;;;;5042849;28;20720;-45
2021/08/07 01:19:33;;;;;;;7.50;5.53;;;15.00;99.90;;;;;;5043205;28;20905;-42
2021/08/07 01:22:02;;;;;;;5.97;5.57;;;15.00;99.90;;;;;;5041914;28;20634;-46
2021/08/07 01:24:47;;;;;;;6.10;5.50;;;15.00;99.90;;;;;;5047215;28;20219;-42
2021/08/07 01:27:25;;;;;;;5.80;5.30;;;15.00;99.90;;;;;;5025529;28;22193;-43
2021/08/07 01:30:01;;;;;;;6.60;5.90;;;15.00;99.90;;;;;;5043263;28;20187;-45
2021/08/07 01:32:33;;;;;;;5.37;4.93;;;15.00;99.90;;;;;;5044224;28;20191;-45
2021/08/07 01:35:02;;;;;;;6.27;5.67;;;15.00;99.90;;;;;;5042062;28;20202;-51
2021/08/07 01:37:30;;;;;;;6.93;4.53;;;15.00;99.90;;;;;;5046278;28;20216;-48
2021/08/07 01:40:14;;;;;;;5.53;5.03;;;15.00;99.90;;;;;;5040471;28;20214;-41
2021/08/07 01:42:50;;;;;;;6.33;4.93;;;15.00;99.90;;;;;;5043810;28;20221;-49
2021/08/07 01:45:22;;;;;;;5.60;5.20;;;15.00;99.90;;;;;;5033190;28;20220;-46
2021/08/07 01:47:57;;;;;;;5.73;5.23;;;15.00;99.90;;;;;;5044200;28;20301;-44
2021/08/07 01:50:32;;;;;;;5.63;5.13;;;15.00;99.90;;;;;;5039764;28;20570;-44
2021/08/07 01:53:01;;;;;;;6.20;5.60;;;15.00;99.90;;;;;;5060798;28;20290;-43
2021/08/07 01:55:35;;;;;;;6.10;5.10;;;15.00;99.90;;;;;;5046243;28;20692;-42
2021/08/07 01:58:12;;;;;;;6.03;4.40;;;15.10;99.90;;;;;;5026786;28;20223;-47
2021/08/07 02:00:42;;;;;;;5.10;4.70;;;15.00;99.90;;;;;;5054154;28;20565;-42
2021/08/07 02:03:14;;;;;;;6.03;4.23;;;15.00;99.90;;;;;;5043266;28;20223;-45
2021/08/07 02:05:43;;;;;;;6.20;4.37;;;15.00;99.90;;;;;;5046987;28;20191;-41
2021/08/07 02:08:11;;;;;;;5.23;4.83;;;14.90;99.90;;;;;;5040074;28;20955;-44
2021/08/07 02:10:49;;;;;;;7.23;5.20;;;14.90;99.90;;;;;;5046549;28;20605;-46
2021/08/07 02:13:20;;;;;;;6.67;4.63;;;15.00;99.90;;;;;;5041886;28;20226;-48
2021/08/07 02:15:49;;;;;;;5.63;5.07;;;15.00;99.90;;;;;;5028159;28;20692;-42
2021/08/07 02:18:25;;;;;;;6.50;4.90;;;14.90;99.90;;;;;;5041390;28;20291;-43
2021/08/07 02:20:55;;;;;;;4.80;4.50;;;14.90;99.90;;;;;;5040177;28;20693;-46
2021/08/07 02:23:23;;;;;;;5.17;4.53;;;14.90;99.90;;;;;;5041748;28;20198;-45
2021/08/07 02:25:53;;;;;;;5.47;4.17;;;14.90;99.90;;;;;;5043312;28;20245;-47
2021/08/07 02:28:28;;;;;;;5.27;4.40;;;14.90;99.90;;;;;;5042113;28;20210;-42
2021/08/07 02:31:01;;;;;;;9.23;4.80;;;14.80;99.90;;;;;;5026505;28;20286;-42
2021/08/07 02:33:30;;;;;;;5.23;4.73;;;14.80;99.90;;;;;;5044802;28;20198;-46
2021/08/07 02:35:59;;;;;;;6.60;4.87;;;14.80;99.90;;;;;;5045781;28;20699;-44
2021/08/07 02:38:27;;;;;;;4.93;4.40;;;14.80;99.90;;;;;;5041964;28;20211;-41
2021/08/07 02:40:55;;;;;;;5.07;4.63;;;14.80;99.90;;;;;;5042051;28;20207;-47
2021/08/07 02:43:24;;;;;;;5.00;4.50;;;14.80;99.90;;;;;;5041655;28;20191;-43
2021/08/07 02:45:53;;;;;;;5.07;4.67;;;14.80;99.90;;;;;;5025711;28;20215;-43
2021/08/07 02:48:27;;;;;;;4.90;4.50;;;14.80;99.90;;;;;;5041373;28;20214;-47
2021/08/07 02:50:56;;;;;;;6.27;5.03;;;14.90;99.90;;;;;;5040641;28;20215;-45
2021/08/07 02:53:24;;;;;;;5.33;4.93;;;14.80;99.90;;;;;;5041166;28;20187;-45
2021/08/07 02:55:51;;;;;;;5.63;4.47;;;14.80;99.90;;;;;;5042690;28;20188;-43
2021/08/07 02:58:25;;;;;;;5.37;4.70;;;14.80;99.90;;;;;;5045892;28;20215;-41
2021/08/07 03:00:55;;;;;;;4.93;4.53;;;14.70;99.90;;;;;;5037184;28;20302;-45
2021/08/07 03:03:25;;;;;;;6.47;4.80;;;14.70;99.90;;;;;;5034650;28;20214;-43
2021/08/07 03:05:54;;;;;;;4.90;4.50;;;14.70;99.90;;;;;;5041798;28;20290;-47
2021/08/07 03:08:20;;;;;;;4.60;4.30;;;14.70;99.90;;;;;;5040263;28;20909;-44
2021/08/07 03:10:50;;;;;;;5.03;4.67;;;14.70;99.90;;;;;;5048673;28;20211;-43
2021/08/07 03:13:21;;;;;;;4.97;4.67;;;14.70;99.90;;;;;;5040442;28;20191;-44
2021/08/07 03:15:49;;;;;;;5.50;5.00;;;14.60;99.90;;;;;;5045732;28;20191;-45
2021/08/07 03:18:21;;;;;;;5.83;5.10;;;14.60;99.90;;;;;;5029862;28;20215;-44
2021/08/07 03:20:56;;;;;;;5.07;4.70;;;14.60;99.90;;;;;;5040286;28;20220;-44
2021/08/07 03:23:25;;;;;;;5.33;4.93;;;14.60;99.90;;;;;;5040869;28;20187;-47
2021/08/07 03:25:56;;;;;;;5.00;4.50;;;14.60;99.90;;;;;;5041004;28;20201;-43
2021/08/07 03:28:23;;;;;;;7.27;5.13;;;14.60;99.90;;;;;;5040413;28;20215;-43
2021/08/07 03:30:50;;;;;;;7.87;5.37;;;14.70;99.90;;;;;;5042045;28;20187;-46
2021/08/07 03:33:18;;;;;;;5.57;5.07;;;14.70;99.90;;;;;;5023372;28;20219;-46
2021/08/07 03:35:46;;;;;;;5.67;5.07;;;14.70;99.90;;;;;;5042391;28;20191;-46
2021/08/07 03:38:13;;;;;;;4.83;4.53;;;14.60;99.90;;;;;;5038238;28;20298;-43
2021/08/07 03:40:40;;;;;;;5.00;4.60;;;14.60;99.90;;;;;;5041926;28;20215;-42
2021/08/07 03:43:13;;;;;;;5.17;4.77;;;14.70;99.90;;;;;;5038289;28;20241;-43
2021/08/07 03:45:40;;;;;;;5.10;4.80;;;14.70;99.90;;;;;;5046556;28;20207;-51
2021/08/07 03:48:07;;;;;;;7.23;5.50;;;14.70;99.90;;;;;;5022712;28;20223;-44
2021/08/07 03:50:39;;;;;;;5.20;4.77;;;14.70;99.90;;;;;;5041670;28;20226;-44
2021/08/07 03:53:10;;;;;;;5.37;4.87;;;14.70;99.90;;;;;;5040016;28;20924;-41
2021/08/07 03:55:37;;;;;;;5.20;4.90;;;14.70;99.90;;;;;;5042242;28;20199;-42
2021/08/07 03:58:06;;;;;;;5.80;5.20;;;14.60;99.90;;;;;;5038639;28;20302;-45
2021/08/07 04:00:39;;;;;;;5.47;5.00;;;14.60;99.90;;;;;;5041844;28;20207;-42
2021/08/07 04:03:09;;;;;;;6.13;4.90;;;14.60;99.90;;;;;;5022610;28;20202;-45
2021/08/07 04:05:36;;;;;;;5.43;4.93;;;14.60;99.90;;;;;;5042877;28;20222;-42
2021/08/07 04:08:04;;;;;;;5.70;5.20;;;14.50;99.90;;;;;;5038912;28;20617;-42
2021/08/07 04:10:33;;;;;;;5.27;4.87;;;14.50;99.90;;;;;;5041374;28;20195;-47
2021/08/07 04:13:00;;;;;;;6.00;4.60;;;14.50;99.90;;;;;;5040950;28;20199;-43
2021/08/07 04:15:27;;;;;;;5.40;4.90;;;14.50;99.90;;;;;;5040594;28;20188;-48
2021/08/07 04:17:53;;;;;;;4.90;4.50;;;14.50;99.90;;;;;;5036464;28;20218;-43
2021/08/07 04:20:21;;;;;;;6.73;5.60;;;14.50;99.90;;;;;;5041235;28;20294;-43
2021/08/07 04:22:48;;;;;;;5.50;5.07;;;14.50;99.90;;;;;;5041845;28;20215;-44
2021/08/07 04:25:15;;;;;;;7.20;6.17;;;14.60;99.90;;;;;;5038095;28;20237;-43
2021/08/07 04:27:44;;;;;;;8.87;6.57;;;14.60;99.90;;;;;;5041862;28;20214;-45
2021/08/07 04:30:12;;;;;;;7.47;6.30;;;14.60;99.90;;;;;;5037572;28;20191;-42
2021/08/07 04:32:42;;;;;;;7.50;6.80;;;14.70;99.90;;;;;;5043075;28;20191;-41
2021/08/07 04:35:11;;;;;;;8.67;6.73;;;14.70;99.90;;;;;;5021874;28;20265;-42
2021/08/07 04:37:48;;;;;;;7.50;6.53;;;14.80;99.90;;;;;;5041610;28;20272;-41
2021/08/07 04:40:16;;;;;;;6.73;6.23;;;14.80;99.90;;;;;;5037867;28;20274;-42
2021/08/07 04:42:44;;;;;;;7.00;6.47;;;14.90;99.90;;;;;;5043945;28;20211;-47
2021/08/07 04:45:12;;;;;;;7.63;6.93;;;14.90;99.90;;;;;;5040270;28;20242;-44
2021/08/07 04:47:54;;;;;;;7.77;6.87;;;14.90;99.90;;;;;;5053148;28;20211;-46
2021/08/07 04:50:22;;;;;;;7.63;6.47;;;14.90;99.90;;;;;;5033891;28;20203;-46
2021/08/07 04:52:49;;;;;;;7.20;6.70;;;14.90;99.90;;;;;;5050697;28;20191;-43
2021/08/07 04:55:16;;;;;;;6.70;6.10;;;15.00;99.90;;;;;;5049653;28;20407;-47
2021/08/07 04:57:44;;;;;;;7.90;7.20;;;15.00;99.90;;;;;;5050666;28;20306;-45
2021/08/07 05:00:12;;;;;;;7.40;6.70;;;15.00;99.90;;;;;;5043917;28;20202;-42
2021/08/07 05:02:40;;;;;;;7.67;6.97;;;15.00;99.90;;;;;;5046658;28;20219;-45
2021/08/07 05:05:09;;;;;;;7.87;7.20;;;15.00;99.90;;;;;;5026275;28;23752;-46
2021/08/07 05:07:36;;;;;;;8.00;7.27;;;15.00;99.90;;;;;;5041376;28;20225;-47
2021/08/07 05:10:04;;;;;;;7.83;7.13;;;15.10;99.90;;;;;;5043446;28;20653;-47
2021/08/07 05:12:32;;;;;;;7.83;7.13;;;15.10;99.90;;;;;;5044883;28;20203;-44
2021/08/07 05:15:00;;;;;;;7.87;7.07;;;15.20;99.90;;;;;;5042944;28;20191;-45
2021/08/07 05:17:27;;;;;;;11.53;7.43;;;15.20;99.90;;;;;;5043460;28;20254;-42
2021/08/07 05:19:54;;;;;;;9.57;7.23;;;15.20;99.90;;;;;;5040721;28;20200;-45
2021/08/07 05:22:21;;;;;;;8.13;7.37;;;15.20;99.90;;;;;;5032495;28;20728;-42
2021/08/07 05:24:52;;;;;;;11.80;7.83;;;15.30;99.90;;;;;;5044011;28;20217;-44
2021/08/07 05:27:20;;;;;;;10.20;8.00;;;15.30;99.90;;;;;;5041977;28;20300;-43
2021/08/07 05:29:48;;;;;;;9.37;7.83;;;15.30;99.90;;;;;;5044773;28;20191;-44
2021/08/07 05:32:16;;;;;;;8.90;8.07;;;15.30;99.90;;;;;;5040855;28;20302;-46
2021/08/07 05:34:43;;;;;;;9.10;8.10;;;15.40;99.90;;;;;;5047715;28;20607;-47
2021/08/07 05:37:10;;;;;;;11.17;7.90;;;15.40;99.90;;;;;;5026855;28;20227;-41
2021/08/07 05:39:36;;;;;;;9.83;8.37;;;15.40;99.90;;;;;;5045345;28;20199;-41
2021/08/07 05:42:04;;;;;;;10.83;9.80;;;15.40;99.90;;;;;;5041367;28;20311;-45
2021/08/07 05:44:31;;;;;;;8.47;7.63;;;15.50;99.90;;;;;;5044047;28;20195;-46
2021/08/07 05:46:57;;;;;;;10.03;8.70;;;15.50;99.90;;;;;;5042634;28;20720;-48
2021/08/07 05:49:25;;;;;;;9.47;8.53;;;15.60;99.90;;;;;;5042258;28;20190;-41
2021/08/07 05:51:53;;;;;;;9.97;8.93;;;15.60;99.90;;;;;;5039281;28;20248;-50
2021/08/07 05:54:20;;;;;;;11.90;9.07;;;15.70;99.90;;;;;;5031432;28;21029;-43
2021/08/07 05:56:47;;;;;;;10.77;9.67;;;15.80;99.90;;;;;;5045092;28;20199;-45
2021/08/07 05:59:15;;;;;;;11.13;9.23;;;15.90;99.90;;;;;;5044908;28;20180;-46
2021/08/07 06:01:41;;;;;;;11.30;9.63;;;16.00;99.90;;;;;;5051310;28;20566;-45
2021/08/07 06:04:08;;;;;;;12.17;10.07;;;16.00;99.90;;;;;;5045086;28;20191;-43
2021/08/07 06:06:36;;;;;;;12.07;10.47;;;16.10;99.90;;;;;;5044876;28;20234;-45
2021/08/07 06:09:03;;;;;;;11.10;9.90;;;16.10;99.90;;;;;;5024503;28;20216;-45
2021/08/07 06:11:30;;;;;;;13.27;9.83;;;16.20;99.90;;;;;;5043538;28;20622;-45
2021/08/07 06:13:56;;;;;;;13.30;9.87;;;16.20;99.90;;;;;;5042281;28;20285;-44
2021/08/07 06:16:25;;;;;;;14.70;10.03;;;16.20;99.90;;;;;;5042357;28;20987;-42
2021/08/07 06:18:52;;;;;;;10.13;9.23;;;16.30;99.90;;;;;;5043001;28;20250;-43
2021/08/07 06:21:19;;;;;;;10.77;9.50;;;16.30;99.90;;;;;;5040247;28;20227;-41
2021/08/07 06:23:48;;;;;;;10.80;9.80;;;16.30;99.90;;;;;;5028164;28;20696;-44
2021/08/07 06:26:15;;;;;;;12.23;10.20;;;16.30;99.90;;;;;;5040846;28;20956;-43
2021/08/07 06:28:42;;;;;;;12.63;10.00;;;16.30;99.90;;;;;;5043446;28;20215;-43
2021/08/07 06:31:10;;;;;;;10.77;9.67;;;16.40;99.90;;;;;;5039701;28;20191;-44
2021/08/07 06:33:37;;;;;;;11.37;10.27;;;16.50;99.90;;;;;;5043747;28;20191;-41
2021/08/07 06:36:05;;;;;;;11.27;10.07;;;16.60;99.90;;;;;;5040206;28;20206;-50
2021/08/07 06:38:32;;;;;;;11.30;10.20;;;16.60;99.90;;;;;;5024640;28;20222;-41
2021/08/07 06:41:02;;;;;;;11.23;10.13;;;16.70;99.90;;;;;;5040407;28;20214;-50
2021/08/07 06:43:33;;;;;;;13.67;10.70;;;16.70;99.90;;;;;;5043313;28;20223;-42
2021/08/07 06:46:19;;;;;;;12.30;11.00;;;16.80;99.90;;;;;;5041532;28;20199;-48
2021/08/07 06:48:47;;;;;;;11.07;10.07;;;16.90;99.90;;;;;;5043061;28;20219;-42
2021/08/07 06:51:14;;;;;;;15.50;10.93;;;17.00;99.90;;;;;;5039159;28;20249;-46
2021/08/07 06:53:41;;;;;;;10.47;9.57;;;17.10;99.90;;;;;;5027281;28;20208;-47
2021/08/07 06:56:10;;;;;;;9.73;8.73;;;17.10;99.90;;;;;;5038898;28;20244;-47
2021/08/07 06:58:37;;;;;;;12.47;9.03;;;17.10;99.90;;;;;;5044168;28;20215;-48
2021/08/07 07:01:04;;;;;;;9.60;8.60;;;17.10;99.90;;;;;;5039544;28;20198;-44
2021/08/07 07:03:31;;;;;;;10.93;8.23;;;17.10;99.90;;;;;;5042741;28;20684;-42
2021/08/07 07:05:59;;;;;;;11.27;6.60;;;17.10;99.90;;;;;;5040927;28;20191;-46
2021/08/07 07:08:26;;;;;;;8.47;7.53;;;17.10;99.90;;;;;;5040778;28;20210;-44
2021/08/07 07:10:53;;;;;;;9.20;6.87;;;17.10;99.90;;;;;;5025807;28;20226;-46
2021/08/07 07:13:21;;;;;;;8.63;7.20;;;17.10;99.90;;;;;;5039880;28;20183;-45
2021/08/07 07:15:48;;;;;;;9.33;6.93;;;17.20;99.90;;;;;;5042848;28;20702;-48
2021/08/07 07:18:15;;;;;;;8.30;6.83;;;17.20;99.90;;;;;;5040457;28;20211;-41
2021/08/07 07:20:42;;;;;;;7.47;6.77;;;17.30;99.90;;;;;;5039766;28;20601;-41
2021/08/07 07:23:10;;;;;;;8.03;6.90;;;17.40;99.90;;;;;;5039708;28;20226;-45
2021/08/07 07:25:38;;;;;;;8.03;6.30;;;17.40;99.90;;;;;;5026940;28;20237;-42
2021/08/07 07:28:05;;;;;;;7.77;6.03;;;17.40;99.90;;;;;;5039018;28;20215;-44
2021/08/07 07:30:33;;;;;;;6.20;5.60;;;17.40;99.90;;;;;;5042108;28;20661;-42
2021/08/07 07:33:01;;;;;;;6.97;6.27;;;17.50;99.90;;;;;;5044134;28;20198;-43
2021/08/07 07:35:27;;;;;;;9.00;5.70;;;17.60;99.90;;;;;;5040251;28;20242;-43
2021/08/07 07:37:54;;;;;;;6.50;5.67;;;17.60;99.90;;;;;;5040382;28;20705;-42
2021/08/07 07:40:21;;;;;;;7.00;6.20;;;17.80;99.90;;;;;;5023049;28;20199;-44
2021/08/07 07:42:49;;;;;;;7.30;5.87;;;18.00;99.90;;;;;;5041503;28;20215;-44
2021/08/07 07:45:15;;;;;;;5.87;5.27;;;18.10;99.90;;;;;;5042742;28;20961;-46
2021/08/07 07:47:45;;;;;;;6.00;5.40;;;18.20;99.90;;;;;;5047406;28;20223;-43
2021/08/07 07:50:13;;;;;;;7.10;5.07;;;18.30;99.90;;;;;;5034415;28;20203;-42
2021/08/07 07:52:42;;;;;;;7.33;5.60;;;18.40;99.90;;;;;;5040509;28;20187;-47
2021/08/07 07:55:10;;;;;;;7.33;5.30;;;18.50;99.90;;;;;;5022418;28;20302;-42
2021/08/07 07:57:41;;;;;;;7.07;4.80;;;18.40;99.90;;;;;;5042064;28;20215;-46
2021/08/07 08:00:09;;;;;;;6.20;4.43;;;18.40;99.90;;;;;;5046073;28;20903;-41
2021/08/07 08:02:47;;;;;;;5.87;4.03;;;18.30;99.90;;;;;;5050992;28;20323;-50
2021/08/07 08:05:20;;;;;;;7.87;4.67;;;18.30;99.90;;;;;;5047055;28;20191;-48
2021/08/07 08:07:47;;;;;;;4.80;4.40;;;18.30;99.90;;;;;;5049376;28;20749;-43
2021/08/07 08:10:15;;;;;;;5.33;4.70;;;18.20;99.90;;;;;;5027602;28;20234;-51
2021/08/07 08:12:41;;;;;;;4.60;4.27;;;18.10;99.90;;;;;;5049237;28;20206;-43
2021/08/07 08:15:08;;;;;;;5.47;4.73;;;18.10;99.90;;;;;;5037731;28;20837;-50
2021/08/07 08:17:35;;;;;;;5.60;4.50;;;18.10;99.90;;;;;;5047214;28;20246;-44
2021/08/07 08:20:04;;;;;;;5.20;4.70;;;18.10;99.90;;;;;;5040815;28;20221;-45
2021/08/07 08:22:31;;;;;;;5.33;4.60;;;18.10;99.90;;;;;;5049600;28;20215;-50
2021/08/07 08:24:58;;;;;;;5.93;4.73;;;18.10;99.90;;;;;;5036581;28;20211;-41
2021/08/07 08:27:25;;;;;;;5.43;4.93;;;18.10;99.90;;;;;;5053523;28;20203;-49
2021/08/07 08:29:52;;;;;;;5.47;4.97;;;18.10;99.90;;;;;;5045541;28;20664;-43
2021/08/07 08:32:19;;;;;;;7.17;4.97;;;18.20;99.90;;;;;;5048219;28;20187;-47
2021/08/07 08:34:46;;;;;;;6.50;5.27;;;18.20;99.90;;;;;;5053808;28;20229;-48
2021/08/07 08:37:14;;;;;;;4.30;4.00;;;18.30;99.90;;;;;;5049670;28;20215;-46
2021/08/07 08:39:41;;;;;;;5.07;4.60;;;18.30;99.90;;;;;;5054844;28;20757;-45
2021/08/07 08:42:07;;;;;;;5.10;4.13;;;18.50;99.90;;;;;;5032936;28;20233;-48
2021/08/07 08:44:36;;;;;;;7.20;3.60;;;18.50;99.90;;;;;;5045539;28;20210;-45
2021/08/07 08:47:03;;;;;;;3.57;3.37;;;18.70;99.90;;;;;;5042392;28;20651;-43
2021/08/07 08:49:30;;;;;;;4.30;3.90;;;18.60;99.90;;;;;;5044523;28;20195;-44
2021/08/07 08:52:00;;;;;;;4.83;2.90;;;18.70;99.90;;;;;;5043247;28;20210;-46
2021/08/07 08:54:29;;;;;;;3.40;3.20;;;18.70;99.90;;;;;;5044383;28;20248;-42
2021/08/07 08:56:56;;;;;;;4.20;3.10;;;18.70;99.90;;;;;;5027799;28;20672;-42
2021/08/07 08:59:24;;;;;;;3.80;3.47;;;18.80;99.90;;;;;;5044202;28;20240;-42
2021/08/07 09:01:54;;;;;;;4.07;3.33;;;18.80;99.90;;;;;;5044326;28;20199;-44
2021/08/07 09:04:23;;;;;;;3.40;3.10;;;18.90;99.90;;;;;;5043063;28;20187;-41
2021/08/07 09:06:50;;;;;;;3.50;2.50;;;18.90;99.90;;;;;;5044854;28;20187;-47
2021/08/07 09:09:16;;;;;;;4.47;2.60;;;18.90;99.90;;;;;;5041666;28;20248;-45
2021/08/07 09:11:51;;;;;;;3.70;2.50;;;18.90;99.90;;;;;;5025414;28;20205;-44
2021/08/07 09:14:21;;;;;;;2.43;2.23;;;19.00;99.90;;;;;;5042128;28;20230;-41
2021/08/07 09:17:10;;;;;;;5.00;2.63;;;19.00;99.90;;;;;;5044997;28;20199;-44
2021/08/07 09:19:53;;;;;;;2.57;2.10;;;19.10;99.90;;;;;;5044789;28;20280;-43
2021/08/07 09:22:22;;;;;;;4.60;2.43;;;19.20;99.90;;;;;;5041856;28;20218;-43
2021/08/07 09:25:03;;;;;;;3.20;2.33;;;19.30;99.90;;;;;;5044840;28;20726;-45
2021/08/07 09:27:33;;;;;;;3.77;2.33;;;19.30;99.90;;;;;;5025378;28;20255;-43
2021/08/07 09:30:03;;;;;;;3.40;2.10;;;19.30;99.90;;;;;;5041463;28;20566;-50
2021/08/07 09:32:44;;;;;;;4.10;2.27;;;19.30;99.90;;;;;;5044140;28;20196;-43
2021/08/07 09:35:13;;;;;;;1.77;1.53;;;19.30;99.90;;;;;;5040938;28;20916;-43
2021/08/07 09:37:40;;;;;;;3.27;1.93;;;19.30;99.90;;;;;;5044380;28;20654;-49
2021/08/07 09:40:10;;;;;;;1.80;1.50;;;19.30;99.90;;;;;;5042411;28;20282;-45
2021/08/07 09:42:51;;;;;;;2.10;1.80;;;19.40;99.90;;;;;;5026394;28;20294;-48
2021/08/07 09:45:24;;;;;;;2.37;1.63;;;19.40;99.90;;;;;;5041336;28;20195;-45
2021/08/07 09:47:57;;;;;;;2.13;1.40;;;19.50;99.90;;;;;;5043769;28;20231;-48
2021/08/07 09:50:26;;;;;;;2.00;1.50;;;19.50;99.90;;;;;;5039228;28;20192;-46
2021/08/07 09:52:57;;;;;;;1.73;1.47;;;19.50;99.90;;;;;;5041919;28;20187;-49
2021/08/07 09:55:24;;;;;;;2.57;1.60;;;19.60;99.90;;;;;;5048824;28;20236;-51
2021/08/07 09:58:03;;;;;;;2.10;1.30;;;19.60;99.90;;;;;;5033530;28;20211;-44
2021/08/07 10:00:41;;;;;;;1.57;1.47;;;19.60;99.90;;;;;;5047700;28;20199;-47
2021/08/07 10:03:17;;;;;;;2.10;1.80;;;19.70;99.90;;;;;;5040203;28;20210;-43
2021/08/07 10:05:45;;;;;;;3.37;1.30;;;19.70;99.90;;;;;;5046295;28;20206;-49
2021/08/07 10:08:12;;;;;;;1.60;1.50;;;19.70;99.90;;;;;;5048213;28;20211;-50
2021/08/07 10:10:44;;;;;;;2.70;1.27;;;19.60;99.90;;;;;;5046219;28;20231;-46
2021/08/07 10:13:16;;;;;;;2.00;1.30;;;19.70;99.90;;;;;;5024197;28;20253;-45
2021/08/07 10:15:50;;;;;;;2.93;1.43;;;19.60;99.90;;;;;;5043179;28;20252;-47
2021/08/07 10:18:18;;;;;;;1.73;1.63;;;19.70;99.90;;;;;;5044239;28;20203;-49
2021/08/07 10:20:45;;;;;;;2.30;1.60;;;19.60;99.90;;;;;;5047451;28;20203;-46
2021/08/07 10:23:13;;;;;;;2.50;1.67;;;19.70;99.90;;;;;;5039401;28;20954;-44
2021/08/07 10:25:45;;;;;;;2.23;1.20;;;19.60;99.90;;;;;;5043747;28;20754;-46
2021/08/07 10:28:15;;;;;;;2.97;1.60;;;19.70;99.90;;;;;;5040968;28;20206;-51
2021/08/07 10:30:45;;;;;;;3.03;2.00;;;19.80;99.90;;;;;;5027246;28;20219;-47
2021/08/07 10:33:13;;;;;;;3.07;1.80;;;19.90;99.90;;;;;;5040636;28;20183;-50
2021/08/07 10:35:42;;;;;;;4.27;2.20;;;20.10;99.90;;;;;;5043693;28;20191;-45
2021/08/07 10:38:10;;;;;;;2.30;2.00;;;20.20;99.90;;;;;;5039314;28;20387;-43
2021/08/07 10:40:36;;;;;;;2.10;1.80;;;20.40;99.90;;;;;;5044497;28;20227;-51
2021/08/07 10:43:06;;;;;;;2.50;2.30;;;20.50;99.90;;;;;;5045223;28;20219;-43
2021/08/07 10:45:35;;;;;;;2.83;2.00;;;20.50;99.90;;;;;;5027070;28;20294;-42
2021/08/07 10:48:01;;;;;;;2.20;2.00;;;20.60;99.90;;;;;;5043016;28;20230;-44
2021/08/07 10:50:34;;;;;;;5.00;2.43;;;20.70;99.90;;;;;;5050458;28;20207;-51
2021/08/07 10:53:20;;;;;;;3.43;1.70;;;20.70;99.90;;;;;;5048893;28;20282;-45
2021/08/07 10:55:50;;;;;;;1.93;1.73;;;20.70;99.90;;;;;;5043127;28;20212;-44
2021/08/07 10:58:41;;;;;;;2.10;1.70;;;20.60;99.90;;;;;;5044934;28;20219;-48
2021/08/07 11:01:31;;;;;;;2.73;1.70;;;20.60;99.90;;;;;;5033687;28;20669;-43
2021/08/07 11:04:07;;;;;;;2.20;2.00;;;20.70;99.90;;;;;;5051354;28;20218;-41
2021/08/07 11:06:53;;;;;;;2.10;1.83;;;20.80;99.90;;;;;;5052627;28;20187;-49
2021/08/07 11:09:24;;;;;;;5.60;2.10;;;20.90;99.90;;;;;;5049025;28;20195;-43
2021/08/07 11:12:21;;;;;;;3.75;1.92;;;21.20;99.90;;;;;;5043744;28;20703;-45
2021/08/07 11:14:56;;;;;;;5.13;2.53;;;21.30;99.90;;;;;;5044016;28;20195;-45
2021/08/07 11:17:32;;;;;;;2.42;1.73;;;21.20;99.90;;;;;;5033102;28;20222;-47
2021/08/07 11:20:04;;;;;;;1.92;1.50;;;21.20;99.90;;;;;;5041602;28;20317;-45
2021/08/07 11:23:08;;;;;;;3.42;2.17;;;21.20;99.90;;;;;;5043404;28;20847;-42
2021/08/07 11:26:16;;;;;;;3.73;1.97;;;21.40;99.90;;;;;;5044101;28;20556;-42
2021/08/07 11:29:06;;;;;;;3.30;2.15;;;21.60;99.90;;;;;;5033342;28;20294;-47
2021/08/07 11:31:33;;;;;;;2.00;1.83;;;21.60;99.90;;;;;;5027947;28;20211;-47
2021/08/07 11:34:26;;;;;;;2.28;2.08;;;21.40;99.90;;;;;;5041318;28;20195;-44
2021/08/07 11:37:12;;;;;;;2.03;1.67;;;21.30;99.90;;;;;;5043014;28;20195;-43
2021/08/07 11:40:08;;;;;;;2.92;1.85;;;21.20;99.90;;;;;;5045040;28;20278;-47
2021/08/07 11:42:38;;;;;;;2.85;1.85;;;21.10;99.90;;;;;;5045576;28;20245;-42
2021/08/07 11:45:07;;;;;;;4.18;2.10;;;21.10;99.90;;;;;;5027523;28;20223;-50
2021/08/07 11:47:43;;;;;;;4.80;2.03;;;21.20;99.90;;;;;;5042489;28;20239;-45
2021/08/07 11:50:10;;;;;;;2.58;1.92;;;21.40;99.90;;;;;;5024199;28;20195;-44
2021/08/07 11:52:38;;;;;;;4.07;2.40;;;21.60;99.90;;;;;;5043266;28;20206;-44
2021/08/07 11:55:06;;;;;;;1.80;1.70;;;21.70;99.90;;;;;;5039948;28;20684;-43
2021/08/07 11:57:32;;;;;;;1.92;1.83;;;21.90;99.90;;;;;;5043074;28;20245;-47
2021/08/07 12:00:22;;;;;;;2.90;1.80;;;22.00;99.90;;;;;;5040943;28;20196;-49
2021/08/07 12:02:59;;;;;;;2.45;1.70;;;22.10;99.90;;;;;;5023520;28;20719;-50
2021/08/07 12:05:27;;;;;;;2.00;1.88;;;22.00;99.90;;;;;;5041651;28;20183;-44
2021/08/07 12:08:04;;;;;;;1.80;1.63;;;22.00;99.90;;;;;;5042108;28;20216;-43
2021/08/07 12:10:31;;;;;;;4.50;2.15;;;21.90;99.90;;;;;;5042347;28;20757;-43
2021/08/07 12:12:58;;;;;;;3.05;1.95;;;21.80;99.90;;;;;;5041153;28;20195;-47
2021/08/07 12:15:27;;;;;;;2.15;1.92;;;21.70;99.90;;;;;;5041141;28;20198;-47
2021/08/07 12:17:55;;;;;;;3.67;1.88;;;21.50;99.90;;;;;;5022159;28;20646;-46
2021/08/07 12:20:22;;;;;;;2.22;1.88;;;21.50;99.90;;;;;;5040026;28;20199;-42
2021/08/07 12:23:01;;;;;;;2.33;2.08;;;21.60;99.90;;;;;;5042744;28;20195;-50
2021/08/07 12:25:30;;;;;;;2.25;1.65;;;21.60;99.90;;;;;;5045946;28;20186;-51
2021/08/07 12:28:11;;;;;;;1.98;1.80;;;21.60;99.90;;;;;;5046259;28;20810;-44
2021/08/07 12:30:53;;;;;;;4.30;2.30;;;21.60;99.90;;;;;;5044914;28;20275;-42
2021/08/07 12:33:22;;;;;;;5.13;2.38;;;21.50;99.90;;;;;;5028223;28;20203;-49
2021/08/07 12:35:50;;;;;;;3.25;2.25;;;21.40;99.90;;;;;;5044020;28;20240;-47
2021/08/07 12:38:18;;;;;;;2.78;2.25;;;21.30;99.90;;;;;;5039383;28;20408;-42
2021/08/07 12:40:47;;;;;;;4.35;2.55;;;21.30;99.90;;;;;;5042619;28;20196;-43
2021/08/07 12:43:14;;;;;;;3.72;2.30;;;21.20;99.90;;;;;;5038921;28;20904;-43
2021/08/07 12:45:42;;;;;;;6.05;3.45;;;21.00;99.90;;;;;;5045027;28;20195;-45
2021/08/07 12:48:09;;;;;;;3.38;3.05;;;21.00;99.90;;;;;;5028963;28;20227;-41
2021/08/07 12:50:36;;;;;;;6.32;4.47;;;20.90;99.90;;;;;;5042504;28;20199;-44
2021/08/07 12:53:05;;;;;;;9.85;4.65;;;20.70;99.90;;;;;;5031684;28;20242;-43
2021/08/07 12:55:33;;;;;;;5.78;3.03;;;20.40;99.90;;;;;;5042234;28;20199;-44
2021/08/07 12:58:15;;;;;;;6.53;3.67;;;20.10;99.90;;;;;;5037687;28;20226;-44
2021/08/07 13:00:43;;;;;;;4.57;3.70;;;19.80;99.90;;;;;;5042358;28;20241;-44
2021/08/07 13:03:11;;;;;;;5.20;3.92;;;19.60;99.90;;;;;;5022693;28;20215;-46